sensor_id;sensor_type;location;lat;lon;timestamp;temperature;humidity
43673;DHT22;41723;49.326;8.430;2023-11-21T00:00:17;10.10;99.90
43673;DHT22;41723;49.326;8.430;2023-11-21T00:02:43;10.00;99.90
43673;DHT22;41723;49.326;8.430;2023-11-21T00:05:10;10.00;99.90
43673;DHT22;41723;49.326;8.430;2023-11-21T00:07:36;10.00;99.90
43673;DHT22;41723;49.326;8.430;2023-11-21T00:10:02;10.00;99.90
43673;DHT22;41723;49.326;8.430;2023-11-21T00:12:28;9.90;99.90
43673;DHT22;41723;49.326;8.430;2023-11-21T00:14:54;9.90;99.90
43673;DHT22;41723;49.326;8.430;2023-11-21T00:17:20;9.90;99.90
43673;DHT22;41723;49.326;8.430;2023-11-21T00:19:46;9.90;99.90
43673;DHT22;41723;49.326;8.430;2023-11-21T00:22:11;9.90;99.90
43673;DHT22;41723;49.326;8.430;2023-11-21T00:24:37;9.80;99.90
43673;DHT22;41723;49.326;8.430;2023-11-21T00:27:02;9.90;99.90
43673;DHT22;41723;49.326;8.430;2023-11-21T00:29:28;9.90;99.90
43673;DHT22;41723;49.326;8.430;2023-11-21T00:31:54;10.00;99.90
43673;DHT22;41723;49.326;8.430;2023-11-21T00:34:19;10.00;99.90
43673;DHT22;41723;49.326;8.430;2023-11-21T00:36:45;10.00;99.90
43673;DHT22;41723;49.326;8.430;2023-11-21T00:39:10;9.90;99.90
43673;DHT22;41723;49.326;8.430;2023-11-21T00:41:37;10.00;99.90
43673;DHT22;41723;49.326;8.430;2023-11-21T00:44:03;10.00;99.90
43673;DHT22;41723;49.326;8.430;2023-11-21T00:46:28;9.90;99.90
43673;DHT22;41723;49.326;8.430;2023-11-21T00:48:54;10.00;99.90
43673;DHT22;41723;49.326;8.430;2023-11-21T00:51:20;10.00;99.90
43673;DHT22;41723;49.326;8.430;2023-11-21T00:53:47;10.00;99.90
43673;DHT22;41723;49.326;8.430;2023-11-21T00:56:12;9.90;99.90
43673;DHT22;41723;49.326;8.430;2023-11-21T00:58:38;9.90;99.90
43673;DHT22;41723;49.326;8.430;2023-11-21T01:01:04;9.90;99.90
43673;DHT22;41723;49.326;8.430;2023-11-21T01:03:30;9.90;99.90
43673;DHT22;41723;49.326;8.430;2023-11-21T01:05:56;10.00;99.90
43673;DHT22;41723;49.326;8.430;2023-11-21T01:08:21;10.00;99.90
43673;DHT22;41723;49.326;8.430;2023-11-21T01:10:49;10.10;99.90
43673;DHT22;41723;49.326;8.430;2023-11-21T01:13:15;10.00;99.90
43673;DHT22;41723;49.326;8.430;2023-11-21T01:15:40;10.00;99.90
43673;DHT22;41723;49.326;8.430;2023-11-21T01:18:07;10.00;99.90
43673;DHT22;41723;49.326;8.430;2023-11-21T01:20:34;10.00;99.90
43673;DHT22;41723;49.326;8.430;2023-11-21T01:22:59;10.00;99.90
43673;DHT22;41723;49.326;8.430;2023-11-21T01:25:26;10.00;99.90
43673;DHT22;41723;49.326;8.430;2023-11-21T01:27:52;10.10;99.90
43673;DHT22;41723;49.326;8.430;2023-11-21T01:30:18;10.10;99.90
43673;DHT22;41723;49.326;8.430;2023-11-21T01:32:43;10.10;99.90
43673;DHT22;41723;49.326;8.430;2023-11-21T01:35:09;10.20;99.90
43673;DHT22;41723;49.326;8.430;2023-11-21T01:37:36;10.10;99.90
43673;DHT22;41723;49.326;8.430;2023-11-21T01:40:01;10.10;99.90
43673;DHT22;41723;49.326;8.430;2023-11-21T01:42:30;10.10;99.90
43673;DHT22;41723;49.326;8.430;2023-11-21T01:44:56;10.10;99.90
43673;DHT22;41723;49.326;8.430;2023-11-21T01:47:21;10.10;99.90
43673;DHT22;41723;49.326;8.430;2023-11-21T01:49:47;10.10;99.90
43673;DHT22;41723;49.326;8.430;2023-11-21T01:52:13;10.10;99.90
43673;DHT22;41723;49.326;8.430;2023-11-21T01:54:40;10.10;99.90
43673;DHT22;41723;49.326;8.430;2023-11-21T01:57:06;10.10;99.90
43673;DHT22;41723;49.326;8.430;2023-11-21T01:59:36;10.10;99.90
43673;DHT22;41723;49.326;8.430;2023-11-21T02:02:06;10.10;99.90
43673;DHT22;41723;49.326;8.430;2023-11-21T02:04:33;10.00;99.90
43673;DHT22;41723;49.326;8.430;2023-11-21T02:06:59;10.00;99.90
43673;DHT22;41723;49.326;8.430;2023-11-21T02:09:25;10.10;99.90
43673;DHT22;41723;49.326;8.430;2023-11-21T02:11:55;10.10;99.90
43673;DHT22;41723;49.326;8.430;2023-11-21T02:14:21;10.10;99.90
43673;DHT22;41723;49.326;8.430;2023-11-21T02:16:50;10.10;99.90
43673;DHT22;41723;49.326;8.430;2023-11-21T02:19:20;10.00;99.90
43673;DHT22;41723;49.326;8.430;2023-11-21T02:21:54;10.00;99.90
43673;DHT22;41723;49.326;8.430;2023-11-21T02:24:20;10.10;99.90
43673;DHT22;41723;49.326;8.430;2023-11-21T02:26:47;10.10;99.90
43673;DHT22;41723;49.326;8.430;2023-11-21T02:29:12;10.00;99.90
43673;DHT22;41723;49.326;8.430;2023-11-21T02:31:39;10.10;99.90
43673;DHT22;41723;49.326;8.430;2023-11-21T02:34:16;10.10;99.90
43673;DHT22;41723;49.326;8.430;2023-11-21T02:36:43;10.10;99.90
43673;DHT22;41723;49.326;8.430;2023-11-21T02:39:09;10.10;99.90
43673;DHT22;41723;49.326;8.430;2023-11-21T02:41:36;10.00;99.90
43673;DHT22;41723;49.326;8.430;2023-11-21T02:44:02;10.10;99.90
43673;DHT22;41723;49.326;8.430;2023-11-21T02:46:28;10.10;99.90
43673;DHT22;41723;49.326;8.430;2023-11-21T02:48:53;10.00;99.90
43673;DHT22;41723;49.326;8.430;2023-11-21T02:51:20;10.00;99.90
43673;DHT22;41723;49.326;8.430;2023-11-21T02:53:45;10.00;99.90
43673;DHT22;41723;49.326;8.430;2023-11-21T02:56:12;10.00;99.90
43673;DHT22;41723;49.326;8.430;2023-11-21T02:58:37;10.00;99.90
43673;DHT22;41723;49.326;8.430;2023-11-21T03:01:04;10.00;99.90
43673;DHT22;41723;49.326;8.430;2023-11-21T03:03:30;10.00;99.90
43673;DHT22;41723;49.326;8.430;2023-11-21T03:05:56;10.00;99.90
43673;DHT22;41723;49.326;8.430;2023-11-21T03:08:22;10.00;99.90
43673;DHT22;41723;49.326;8.430;2023-11-21T03:10:48;10.10;99.90
43673;DHT22;41723;49.326;8.430;2023-11-21T03:13:13;10.00;99.90
43673;DHT22;41723;49.326;8.430;2023-11-21T03:15:39;10.00;99.90
43673;DHT22;41723;49.326;8.430;2023-11-21T03:18:04;10.10;99.90
43673;DHT22;41723;49.326;8.430;2023-11-21T03:20:30;10.00;99.90
43673;DHT22;41723;49.326;8.430;2023-11-21T03:22:56;10.00;99.90
43673;DHT22;41723;49.326;8.430;2023-11-21T03:25:21;10.00;99.90
43673;DHT22;41723;49.326;8.430;2023-11-21T03:27:49;10.10;99.90
43673;DHT22;41723;49.326;8.430;2023-11-21T03:30:14;10.10;99.90
43673;DHT22;41723;49.326;8.430;2023-11-21T03:32:41;10.00;99.90
43673;DHT22;41723;49.326;8.430;2023-11-21T03:35:07;10.10;99.90
43673;DHT22;41723;49.326;8.430;2023-11-21T03:37:33;10.10;99.90
43673;DHT22;41723;49.326;8.430;2023-11-21T03:39:58;10.10;99.90
43673;DHT22;41723;49.326;8.430;2023-11-21T03:42:24;10.10;99.90
43673;DHT22;41723;49.326;8.430;2023-11-21T03:44:52;10.10;99.90
43673;DHT22;41723;49.326;8.430;2023-11-21T03:47:20;10.20;99.90
43673;DHT22;41723;49.326;8.430;2023-11-21T03:49:45;10.10;99.90
43673;DHT22;41723;49.326;8.430;2023-11-21T03:52:14;10.10;99.90
43673;DHT22;41723;49.326;8.430;2023-11-21T03:54:40;10.10;99.90
43673;DHT22;41723;49.326;8.430;2023-11-21T03:57:05;10.10;99.90
43673;DHT22;41723;49.326;8.430;2023-11-21T03:59:31;10.10;99.90
43673;DHT22;41723;49.326;8.430;2023-11-21T04:01:57;10.00;99.90
43673;DHT22;41723;49.326;8.430;2023-11-21T04:04:22;10.00;99.90
43673;DHT22;41723;49.326;8.430;2023-11-21T04:06:48;10.00;99.90
43673;DHT22;41723;49.326;8.430;2023-11-21T04:09:13;10.10;99.90
43673;DHT22;41723;49.326;8.430;2023-11-21T04:11:39;10.10;99.90
43673;DHT22;41723;49.326;8.430;2023-11-21T04:14:04;10.20;99.90
43673;DHT22;41723;49.326;8.430;2023-11-21T04:16:30;10.20;99.90
43673;DHT22;41723;49.326;8.430;2023-11-21T04:18:56;10.10;99.90
43673;DHT22;41723;49.326;8.430;2023-11-21T04:21:22;10.10;99.90
43673;DHT22;41723;49.326;8.430;2023-11-21T04:23:49;10.20;99.90
43673;DHT22;41723;49.326;8.430;2023-11-21T04:26:15;10.10;99.90
43673;DHT22;41723;49.326;8.430;2023-11-21T04:28:40;10.10;99.90
43673;DHT22;41723;49.326;8.430;2023-11-21T04:31:06;10.10;99.90
43673;DHT22;41723;49.326;8.430;2023-11-21T04:33:32;10.20;99.90
43673;DHT22;41723;49.326;8.430;2023-11-21T04:35:58;10.20;99.90
43673;DHT22;41723;49.326;8.430;2023-11-21T04:38:23;10.10;99.90
43673;DHT22;41723;49.326;8.430;2023-11-21T04:40:49;10.10;99.90
43673;DHT22;41723;49.326;8.430;2023-11-21T04:43:15;10.10;99.90
43673;DHT22;41723;49.326;8.430;2023-11-21T04:45:40;10.10;99.90
43673;DHT22;41723;49.326;8.430;2023-11-21T04:48:07;10.10;99.90
43673;DHT22;41723;49.326;8.430;2023-11-21T04:50:33;10.10;99.90
43673;DHT22;41723;49.326;8.430;2023-11-21T04:52:59;10.10;99.90
43673;DHT22;41723;49.326;8.430;2023-11-21T04:55:25;10.10;99.90
43673;DHT22;41723;49.326;8.430;2023-11-21T04:57:53;10.00;99.90
43673;DHT22;41723;49.326;8.430;2023-11-21T05:00:19;10.10;99.90
43673;DHT22;41723;49.326;8.430;2023-11-21T05:02:45;10.10;99.90
43673;DHT22;41723;49.326;8.430;2023-11-21T05:05:11;10.00;99.90
43673;DHT22;41723;49.326;8.430;2023-11-21T05:07:36;10.00;99.90
43673;DHT22;41723;49.326;8.430;2023-11-21T05:10:04;10.00;99.90
43673;DHT22;41723;49.326;8.430;2023-11-21T05:12:31;10.00;99.90
43673;DHT22;41723;49.326;8.430;2023-11-21T05:15:06;10.00;99.90
43673;DHT22;41723;49.326;8.430;2023-11-21T05:17:35;10.00;99.90
43673;DHT22;41723;49.326;8.430;2023-11-21T05:20:02;10.20;99.90
43673;DHT22;41723;49.326;8.430;2023-11-21T05:22:29;10.00;99.90
43673;DHT22;41723;49.326;8.430;2023-11-21T05:24:55;10.10;99.90
43673;DHT22;41723;49.326;8.430;2023-11-21T05:27:21;10.10;99.90
43673;DHT22;41723;49.326;8.430;2023-11-21T05:29:47;10.10;99.90
43673;DHT22;41723;49.326;8.430;2023-11-21T05:32:12;10.10;99.90
43673;DHT22;41723;49.326;8.430;2023-11-21T05:34:38;10.10;99.90
43673;DHT22;41723;49.326;8.430;2023-11-21T05:37:03;10.00;99.90
43673;DHT22;41723;49.326;8.430;2023-11-21T05:39:30;10.00;99.90
43673;DHT22;41723;49.326;8.430;2023-11-21T05:41:57;10.10;99.90
43673;DHT22;41723;49.326;8.430;2023-11-21T05:44:23;10.10;99.90
43673;DHT22;41723;49.326;8.430;2023-11-21T05:46:49;10.10;99.90
43673;DHT22;41723;49.326;8.430;2023-11-21T05:49:15;10.10;99.90
43673;DHT22;41723;49.326;8.430;2023-11-21T05:51:41;10.00;99.90
43673;DHT22;41723;49.326;8.430;2023-11-21T05:54:07;10.10;99.90
43673;DHT22;41723;49.326;8.430;2023-11-21T05:56:33;10.00;99.90
43673;DHT22;41723;49.326;8.430;2023-11-21T05:58:59;10.10;99.90
43673;DHT22;41723;49.326;8.430;2023-11-21T06:01:25;10.10;99.90
43673;DHT22;41723;49.326;8.430;2023-11-21T06:03:53;10.20;99.90
43673;DHT22;41723;49.326;8.430;2023-11-21T06:06:20;10.10;99.90
43673;DHT22;41723;49.326;8.430;2023-11-21T06:08:50;10.00;99.90
43673;DHT22;41723;49.326;8.430;2023-11-21T06:11:17;10.00;99.90
43673;DHT22;41723;49.326;8.430;2023-11-21T06:13:43;10.10;99.90
43673;DHT22;41723;49.326;8.430;2023-11-21T06:16:10;10.00;99.90
43673;DHT22;41723;49.326;8.430;2023-11-21T06:18:36;10.00;99.90
43673;DHT22;41723;49.326;8.430;2023-11-21T06:21:01;10.10;99.90
43673;DHT22;41723;49.326;8.430;2023-11-21T06:23:27;10.00;99.90
43673;DHT22;41723;49.326;8.430;2023-11-21T06:25:52;10.10;99.90
43673;DHT22;41723;49.326;8.430;2023-11-21T06:28:18;10.20;99.90
43673;DHT22;41723;49.326;8.430;2023-11-21T06:30:44;10.10;99.90
43673;DHT22;41723;49.326;8.430;2023-11-21T06:33:10;10.20;99.90
43673;DHT22;41723;49.326;8.430;2023-11-21T06:35:36;10.30;99.90
43673;DHT22;41723;49.326;8.430;2023-11-21T06:38:02;10.20;99.90
43673;DHT22;41723;49.326;8.430;2023-11-21T06:40:28;10.20;99.90
43673;DHT22;41723;49.326;8.430;2023-11-21T06:42:53;10.20;99.90
43673;DHT22;41723;49.326;8.430;2023-11-21T06:45:19;10.20;99.90
43673;DHT22;41723;49.326;8.430;2023-11-21T06:47:45;10.30;99.90
43673;DHT22;41723;49.326;8.430;2023-11-21T06:50:11;10.30;99.90
43673;DHT22;41723;49.326;8.430;2023-11-21T06:52:36;10.20;99.90
43673;DHT22;41723;49.326;8.430;2023-11-21T06:55:02;10.10;99.90
43673;DHT22;41723;49.326;8.430;2023-11-21T06:57:28;10.10;99.90
43673;DHT22;41723;49.326;8.430;2023-11-21T06:59:54;10.10;99.90
43673;DHT22;41723;49.326;8.430;2023-11-21T07:02:19;10.30;99.90
43673;DHT22;41723;49.326;8.430;2023-11-21T07:04:45;10.80;99.90
43673;DHT22;41723;49.326;8.430;2023-11-21T07:07:11;10.90;99.90
43673;DHT22;41723;49.326;8.430;2023-11-21T07:09:37;11.00;99.90
43673;DHT22;41723;49.326;8.430;2023-11-21T07:12:03;10.80;99.90
43673;DHT22;41723;49.326;8.430;2023-11-21T07:14:31;10.60;99.90
43673;DHT22;41723;49.326;8.430;2023-11-21T07:16:57;10.50;99.90
43673;DHT22;41723;49.326;8.430;2023-11-21T07:19:23;10.20;99.90
43673;DHT22;41723;49.326;8.430;2023-11-21T07:21:49;10.10;99.90
43673;DHT22;41723;49.326;8.430;2023-11-21T07:24:17;10.10;99.90
43673;DHT22;41723;49.326;8.430;2023-11-21T07:26:43;10.10;99.90
43673;DHT22;41723;49.326;8.430;2023-11-21T07:29:08;10.00;99.90
43673;DHT22;41723;49.326;8.430;2023-11-21T07:31:34;10.00;99.90
43673;DHT22;41723;49.326;8.430;2023-11-21T07:34:00;10.00;99.90
43673;DHT22;41723;49.326;8.430;2023-11-21T07:36:26;10.00;99.90
43673;DHT22;41723;49.326;8.430;2023-11-21T07:38:52;10.00;99.90
43673;DHT22;41723;49.326;8.430;2023-11-21T07:41:17;10.10;99.90
43673;DHT22;41723;49.326;8.430;2023-11-21T07:43:46;10.10;99.90
43673;DHT22;41723;49.326;8.430;2023-11-21T07:46:12;10.10;99.90
43673;DHT22;41723;49.326;8.430;2023-11-21T07:48:39;10.10;99.90
43673;DHT22;41723;49.326;8.430;2023-11-21T07:51:05;10.00;99.90
43673;DHT22;41723;49.326;8.430;2023-11-21T07:53:32;10.00;99.90
43673;DHT22;41723;49.326;8.430;2023-11-21T07:55:58;10.00;99.90
43673;DHT22;41723;49.326;8.430;2023-11-21T07:58:24;10.00;99.90
43673;DHT22;41723;49.326;8.430;2023-11-21T08:00:49;9.90;99.90
43673;DHT22;41723;49.326;8.430;2023-11-21T08:03:15;9.90;99.90
43673;DHT22;41723;49.326;8.430;2023-11-21T08:05:41;9.90;99.90
43673;DHT22;41723;49.326;8.430;2023-11-21T08:08:10;9.90;99.90
43673;DHT22;41723;49.326;8.430;2023-11-21T08:10:35;9.90;99.90
43673;DHT22;41723;49.326;8.430;2023-11-21T08:13:01;9.90;99.90
43673;DHT22;41723;49.326;8.430;2023-11-21T08:15:27;10.00;99.90
43673;DHT22;41723;49.326;8.430;2023-11-21T08:17:53;9.90;99.90
43673;DHT22;41723;49.326;8.430;2023-11-21T08:20:19;9.80;99.90
43673;DHT22;41723;49.326;8.430;2023-11-21T08:22:44;9.90;99.90
43673;DHT22;41723;49.326;8.430;2023-11-21T08:25:10;9.80;99.90
43673;DHT22;41723;49.326;8.430;2023-11-21T08:27:36;9.80;99.90
43673;DHT22;41723;49.326;8.430;2023-11-21T08:30:02;9.80;99.90
43673;DHT22;41723;49.326;8.430;2023-11-21T08:32:28;9.80;99.90
43673;DHT22;41723;49.326;8.430;2023-11-21T08:34:55;9.90;99.90
43673;DHT22;41723;49.326;8.430;2023-11-21T08:37:21;9.90;99.90
43673;DHT22;41723;49.326;8.430;2023-11-21T08:39:47;9.90;99.90
43673;DHT22;41723;49.326;8.430;2023-11-21T08:42:13;9.90;99.90
43673;DHT22;41723;49.326;8.430;2023-11-21T08:44:39;9.90;99.90
43673;DHT22;41723;49.326;8.430;2023-11-21T08:47:05;9.90;99.90
43673;DHT22;41723;49.326;8.430;2023-11-21T08:49:31;10.00;99.90
43673;DHT22;41723;49.326;8.430;2023-11-21T08:51:58;9.90;99.90
43673;DHT22;41723;49.326;8.430;2023-11-21T08:54:25;9.90;99.90
43673;DHT22;41723;49.326;8.430;2023-11-21T08:56:51;10.00;99.90
43673;DHT22;41723;49.326;8.430;2023-11-21T08:59:17;9.90;99.90
43673;DHT22;41723;49.326;8.430;2023-11-21T09:01:43;10.00;99.90
43673;DHT22;41723;49.326;8.430;2023-11-21T09:04:08;10.00;99.90
43673;DHT22;41723;49.326;8.430;2023-11-21T09:06:34;9.80;99.90
43673;DHT22;41723;49.326;8.430;2023-11-21T09:09:00;9.90;99.90
43673;DHT22;41723;49.326;8.430;2023-11-21T09:11:26;10.00;99.90
43673;DHT22;41723;49.326;8.430;2023-11-21T09:13:56;10.00;99.90
43673;DHT22;41723;49.326;8.430;2023-11-21T09:16:23;10.00;99.90
43673;DHT22;41723;49.326;8.430;2023-11-21T09:18:48;9.90;99.90
43673;DHT22;41723;49.326;8.430;2023-11-21T09:21:14;9.90;99.90
43673;DHT22;41723;49.326;8.430;2023-11-21T09:23:40;9.80;99.90
43673;DHT22;41723;49.326;8.430;2023-11-21T09:26:06;9.80;99.90
43673;DHT22;41723;49.326;8.430;2023-11-21T09:28:32;9.90;99.90
43673;DHT22;41723;49.326;8.430;2023-11-21T09:30:57;9.90;99.90
43673;DHT22;41723;49.326;8.430;2023-11-21T09:33:23;9.90;99.90
43673;DHT22;41723;49.326;8.430;2023-11-21T09:35:50;10.00;99.90
43673;DHT22;41723;49.326;8.430;2023-11-21T09:38:16;9.80;99.90
43673;DHT22;41723;49.326;8.430;2023-11-21T09:40:42;9.90;99.90
43673;DHT22;41723;49.326;8.430;2023-11-21T09:43:17;9.90;99.90
43673;DHT22;41723;49.326;8.430;2023-11-21T09:45:46;9.90;99.90
43673;DHT22;41723;49.326;8.430;2023-11-21T09:48:13;9.90;99.90
43673;DHT22;41723;49.326;8.430;2023-11-21T09:50:39;9.80;99.90
43673;DHT22;41723;49.326;8.430;2023-11-21T09:53:18;9.80;99.90
43673;DHT22;41723;49.326;8.430;2023-11-21T09:55:52;9.90;99.90
43673;DHT22;41723;49.326;8.430;2023-11-21T09:58:19;9.90;99.90
43673;DHT22;41723;49.326;8.430;2023-11-21T10:00:45;9.90;99.90
43673;DHT22;41723;49.326;8.430;2023-11-21T10:03:11;10.00;99.90
43673;DHT22;41723;49.326;8.430;2023-11-21T10:05:37;10.00;99.90
43673;DHT22;41723;49.326;8.430;2023-11-21T10:08:04;10.00;99.90
43673;DHT22;41723;49.326;8.430;2023-11-21T10:10:32;10.00;99.90
43673;DHT22;41723;49.326;8.430;2023-11-21T10:12:58;10.00;99.90
43673;DHT22;41723;49.326;8.430;2023-11-21T10:15:27;10.00;99.90
43673;DHT22;41723;49.326;8.430;2023-11-21T10:17:53;10.00;99.90
43673;DHT22;41723;49.326;8.430;2023-11-21T10:20:19;10.00;99.90
43673;DHT22;41723;49.326;8.430;2023-11-21T10:22:45;10.10;99.90
43673;DHT22;41723;49.326;8.430;2023-11-21T10:25:11;10.10;99.90
43673;DHT22;41723;49.326;8.430;2023-11-21T10:27:40;10.10;99.90
43673;DHT22;41723;49.326;8.430;2023-11-21T10:30:06;10.20;99.90
43673;DHT22;41723;49.326;8.430;2023-11-21T10:32:33;10.10;99.90
43673;DHT22;41723;49.326;8.430;2023-11-21T10:34:59;10.20;99.90
43673;DHT22;41723;49.326;8.430;2023-11-21T10:37:25;10.10;99.90
43673;DHT22;41723;49.326;8.430;2023-11-21T10:39:59;10.20;99.90
43673;DHT22;41723;49.326;8.430;2023-11-21T10:42:25;10.10;99.90
43673;DHT22;41723;49.326;8.430;2023-11-21T10:44:52;10.10;99.90
43673;DHT22;41723;49.326;8.430;2023-11-21T10:47:18;10.10;99.90
43673;DHT22;41723;49.326;8.430;2023-11-21T10:49:44;10.20;99.90
43673;DHT22;41723;49.326;8.430;2023-11-21T10:52:12;10.20;99.90
43673;DHT22;41723;49.326;8.430;2023-11-21T10:54:45;10.10;99.90
43673;DHT22;41723;49.326;8.430;2023-11-21T10:57:10;10.20;99.90
43673;DHT22;41723;49.326;8.430;2023-11-21T10:59:40;10.20;99.90
43673;DHT22;41723;49.326;8.430;2023-11-21T11:02:39;10.20;99.90
43673;DHT22;41723;49.326;8.430;2023-11-21T11:04:59;10.20;99.90
43673;DHT22;41723;49.326;8.430;2023-11-21T11:07:27;10.20;99.90
43673;DHT22;41723;49.326;8.430;2023-11-21T11:09:53;10.30;99.90
43673;DHT22;41723;49.326;8.430;2023-11-21T11:12:19;10.30;99.90
43673;DHT22;41723;49.326;8.430;2023-11-21T11:14:45;10.20;99.90
43673;DHT22;41723;49.326;8.430;2023-11-21T11:17:11;10.10;99.90
43673;DHT22;41723;49.326;8.430;2023-11-21T11:19:36;10.10;99.90
43673;DHT22;41723;49.326;8.430;2023-11-21T11:34:43;10.10;99.90
43673;DHT22;41723;49.326;8.430;2023-11-21T11:37:11;10.10;99.90
43673;DHT22;41723;49.326;8.430;2023-11-21T11:39:39;10.00;99.90
43673;DHT22;41723;49.326;8.430;2023-11-21T11:42:28;10.00;99.90
43673;DHT22;41723;49.326;8.430;2023-11-21T11:44:52;10.00;99.90
43673;DHT22;41723;49.326;8.430;2023-11-21T11:47:29;10.10;99.90
43673;DHT22;41723;49.326;8.430;2023-11-21T11:50:03;10.10;99.90
43673;DHT22;41723;49.326;8.430;2023-11-21T11:52:47;10.10;99.90
43673;DHT22;41723;49.326;8.430;2023-11-21T11:55:15;10.20;99.90
43673;DHT22;41723;49.326;8.430;2023-11-21T11:57:43;10.30;99.90
43673;DHT22;41723;49.326;8.430;2023-11-21T12:00:22;10.30;99.90
43673;DHT22;41723;49.326;8.430;2023-11-21T12:03:00;10.30;99.90
43673;DHT22;41723;49.326;8.430;2023-11-21T12:05:30;10.40;99.90
43673;DHT22;41723;49.326;8.430;2023-11-21T12:08:02;10.50;99.90
43673;DHT22;41723;49.326;8.430;2023-11-21T12:10:32;10.60;99.90
43673;DHT22;41723;49.326;8.430;2023-11-21T12:13:00;10.60;99.90
43673;DHT22;41723;49.326;8.430;2023-11-21T12:15:26;10.60;99.90
43673;DHT22;41723;49.326;8.430;2023-11-21T12:17:54;10.50;99.90
43673;DHT22;41723;49.326;8.430;2023-11-21T12:20:21;10.60;99.90
43673;DHT22;41723;49.326;8.430;2023-11-21T12:22:53;10.70;99.90
43673;DHT22;41723;49.326;8.430;2023-11-21T12:25:20;10.70;99.90
43673;DHT22;41723;49.326;8.430;2023-11-21T12:27:47;10.70;99.90
43673;DHT22;41723;49.326;8.430;2023-11-21T12:30:15;10.70;99.90
43673;DHT22;41723;49.326;8.430;2023-11-21T12:32:43;10.70;99.90
43673;DHT22;41723;49.326;8.430;2023-11-21T12:35:09;10.70;99.90
43673;DHT22;41723;49.326;8.430;2023-11-21T12:37:36;10.60;99.90
43673;DHT22;41723;49.326;8.430;2023-11-21T12:40:02;10.70;99.90
43673;DHT22;41723;49.326;8.430;2023-11-21T12:42:28;10.70;99.90
43673;DHT22;41723;49.326;8.430;2023-11-21T12:45:18;10.70;99.90
43673;DHT22;41723;49.326;8.430;2023-11-21T12:47:49;10.80;99.90
43673;DHT22;41723;49.326;8.430;2023-11-21T12:50:22;10.80;99.90
43673;DHT22;41723;49.326;8.430;2023-11-21T12:52:54;10.80;99.90
43673;DHT22;41723;49.326;8.430;2023-11-21T12:55:23;10.80;99.90
43673;DHT22;41723;49.326;8.430;2023-11-21T12:57:49;10.90;99.90
43673;DHT22;41723;49.326;8.430;2023-11-21T13:00:20;10.90;99.90
43673;DHT22;41723;49.326;8.430;2023-11-21T13:02:53;10.90;99.90
43673;DHT22;41723;49.326;8.430;2023-11-21T13:05:23;10.90;99.90
43673;DHT22;41723;49.326;8.430;2023-11-21T13:07:49;10.90;99.90
43673;DHT22;41723;49.326;8.430;2023-11-21T13:10:16;10.90;99.90
43673;DHT22;41723;49.326;8.430;2023-11-21T13:12:45;10.90;99.90
43673;DHT22;41723;49.326;8.430;2023-11-21T13:15:14;11.00;99.90
43673;DHT22;41723;49.326;8.430;2023-11-21T13:17:39;11.20;99.90
43673;DHT22;41723;49.326;8.430;2023-11-21T13:20:05;11.20;99.90
43673;DHT22;41723;49.326;8.430;2023-11-21T13:22:34;11.20;99.90
43673;DHT22;41723;49.326;8.430;2023-11-21T13:25:01;11.30;99.90
43673;DHT22;41723;49.326;8.430;2023-11-21T13:27:32;11.30;99.90
43673;DHT22;41723;49.326;8.430;2023-11-21T13:29:59;11.30;99.90
43673;DHT22;41723;49.326;8.430;2023-11-21T13:32:27;11.20;99.90
43673;DHT22;41723;49.326;8.430;2023-11-21T13:34:54;11.30;99.90
43673;DHT22;41723;49.326;8.430;2023-11-21T13:37:20;11.30;99.90
43673;DHT22;41723;49.326;8.430;2023-11-21T13:39:46;11.30;99.90
43673;DHT22;41723;49.326;8.430;2023-11-21T13:42:15;11.30;99.90
43673;DHT22;41723;49.326;8.430;2023-11-21T13:44:42;11.20;99.90
43673;DHT22;41723;49.326;8.430;2023-11-21T13:47:12;11.20;99.90
43673;DHT22;41723;49.326;8.430;2023-11-21T13:49:37;11.30;99.90
43673;DHT22;41723;49.326;8.430;2023-11-21T13:52:06;11.30;99.90
43673;DHT22;41723;49.326;8.430;2023-11-21T13:54:33;11.30;99.90
43673;DHT22;41723;49.326;8.430;2023-11-21T13:56:58;11.30;99.90
43673;DHT22;41723;49.326;8.430;2023-11-21T13:59:25;11.30;99.90
43673;DHT22;41723;49.326;8.430;2023-11-21T14:01:53;11.20;99.90
43673;DHT22;41723;49.326;8.430;2023-11-21T14:04:21;11.20;99.90
43673;DHT22;41723;49.326;8.430;2023-11-21T14:07:01;11.20;99.90
43673;DHT22;41723;49.326;8.430;2023-11-21T14:09:39;11.00;99.90
43673;DHT22;41723;49.326;8.430;2023-11-21T14:12:09;11.10;99.90
43673;DHT22;41723;49.326;8.430;2023-11-21T14:14:37;11.20;99.90
43673;DHT22;41723;49.326;8.430;2023-11-21T14:17:04;11.20;99.90
43673;DHT22;41723;49.326;8.430;2023-11-21T14:19:32;11.20;99.90
43673;DHT22;41723;49.326;8.430;2023-11-21T14:21:59;11.10;99.90
43673;DHT22;41723;49.326;8.430;2023-11-21T14:24:25;11.20;99.90
43673;DHT22;41723;49.326;8.430;2023-11-21T14:26:51;11.20;99.90
43673;DHT22;41723;49.326;8.430;2023-11-21T14:29:17;11.20;99.90
43673;DHT22;41723;49.326;8.430;2023-11-21T14:31:45;11.20;99.90
43673;DHT22;41723;49.326;8.430;2023-11-21T14:34:11;11.20;99.90
43673;DHT22;41723;49.326;8.430;2023-11-21T14:36:37;11.20;99.90
43673;DHT22;41723;49.326;8.430;2023-11-21T14:39:04;11.20;99.90
43673;DHT22;41723;49.326;8.430;2023-11-21T14:41:36;11.10;99.90
43673;DHT22;41723;49.326;8.430;2023-11-21T14:44:04;11.10;99.90
43673;DHT22;41723;49.326;8.430;2023-11-21T14:46:32;11.10;99.90
43673;DHT22;41723;49.326;8.430;2023-11-21T14:49:00;11.10;99.90
43673;DHT22;41723;49.326;8.430;2023-11-21T14:51:44;11.10;99.90
43673;DHT22;41723;49.326;8.430;2023-11-21T14:54:36;11.10;99.90
43673;DHT22;41723;49.326;8.430;2023-11-21T14:57:25;11.10;99.90
43673;DHT22;41723;49.326;8.430;2023-11-21T14:59:52;11.00;99.90
43673;DHT22;41723;49.326;8.430;2023-11-21T15:02:20;11.00;99.90
43673;DHT22;41723;49.326;8.430;2023-11-21T15:04:48;11.00;99.90
43673;DHT22;41723;49.326;8.430;2023-11-21T15:07:16;11.00;99.90
43673;DHT22;41723;49.326;8.430;2023-11-21T15:09:42;11.00;99.90
43673;DHT22;41723;49.326;8.430;2023-11-21T15:12:08;11.10;99.90
43673;DHT22;41723;49.326;8.430;2023-11-21T15:14:41;11.10;99.90
43673;DHT22;41723;49.326;8.430;2023-11-21T15:17:07;11.00;99.90
43673;DHT22;41723;49.326;8.430;2023-11-21T15:19:33;11.00;99.90
43673;DHT22;41723;49.326;8.430;2023-11-21T15:21:59;10.90;99.90
43673;DHT22;41723;49.326;8.430;2023-11-21T15:24:25;11.00;99.90
43673;DHT22;41723;49.326;8.430;2023-11-21T15:26:51;10.90;99.90
43673;DHT22;41723;49.326;8.430;2023-11-21T15:29:16;11.00;99.90
43673;DHT22;41723;49.326;8.430;2023-11-21T15:31:43;11.00;99.90
43673;DHT22;41723;49.326;8.430;2023-11-21T15:34:14;11.00;99.90
43673;DHT22;41723;49.326;8.430;2023-11-21T15:36:40;11.00;99.90
43673;DHT22;41723;49.326;8.430;2023-11-21T15:39:05;10.90;99.90
43673;DHT22;41723;49.326;8.430;2023-11-21T15:41:32;10.90;99.90
43673;DHT22;41723;49.326;8.430;2023-11-21T15:43:59;11.00;99.90